sensor_id;sensor_type;location;lat;lon;timestamp;temperature;humidity
74511;DHT22;62991;50.040;18.400;2023-02-22T00:02:40;8.70;58.00
74511;DHT22;62991;50.040;18.400;2023-02-22T00:05:45;8.60;58.00
74511;DHT22;62991;50.040;18.400;2023-02-22T00:08:53;8.60;58.10
74511;DHT22;62991;50.040;18.400;2023-02-22T00:11:55;8.60;58.40
74511;DHT22;62991;50.040;18.400;2023-02-22T00:14:55;8.60;58.00
74511;DHT22;62991;50.040;18.400;2023-02-22T00:17:56;8.40;59.00
74511;DHT22;62991;50.040;18.400;2023-02-22T00:20:59;8.40;59.40
74511;DHT22;62991;50.040;18.400;2023-02-22T00:23:59;8.60;59.10
74511;DHT22;62991;50.040;18.400;2023-02-22T00:27:06;8.60;59.20
74511;DHT22;62991;50.040;18.400;2023-02-22T00:30:07;8.60;59.40
74511;DHT22;62991;50.040;18.400;2023-02-22T00:33:10;8.70;59.50
74511;DHT22;62991;50.040;18.400;2023-02-22T00:36:12;8.80;59.30
74511;DHT22;62991;50.040;18.400;2023-02-22T00:39:13;8.80;59.00
74511;DHT22;62991;50.040;18.400;2023-02-22T00:42:15;8.80;58.80
74511;DHT22;62991;50.040;18.400;2023-02-22T00:45:19;9.00;58.30
74511;DHT22;62991;50.040;18.400;2023-02-22T00:48:21;9.10;58.00
74511;DHT22;62991;50.040;18.400;2023-02-22T00:51:24;9.00;58.00
74511;DHT22;62991;50.040;18.400;2023-02-22T00:54:26;9.00;58.00
74511;DHT22;62991;50.040;18.400;2023-02-22T00:57:27;8.80;58.70
74511;DHT22;62991;50.040;18.400;2023-02-22T01:00:36;8.80;58.70
74511;DHT22;62991;50.040;18.400;2023-02-22T01:03:37;8.70;59.20
74511;DHT22;62991;50.040;18.400;2023-02-22T01:06:40;8.70;59.10
74511;DHT22;62991;50.040;18.400;2023-02-22T01:09:41;8.80;59.00
74511;DHT22;62991;50.040;18.400;2023-02-22T01:12:44;8.70;59.10
74511;DHT22;62991;50.040;18.400;2023-02-22T01:15:44;8.70;59.40
74511;DHT22;62991;50.040;18.400;2023-02-22T01:18:45;8.70;59.90
74511;DHT22;62991;50.040;18.400;2023-02-22T01:21:47;9.00;59.30
74511;DHT22;62991;50.040;18.400;2023-02-22T01:24:49;8.90;59.30
74511;DHT22;62991;50.040;18.400;2023-02-22T01:27:50;9.00;59.20
74511;DHT22;62991;50.040;18.400;2023-02-22T01:30:51;8.90;59.80
74511;DHT22;62991;50.040;18.400;2023-02-22T01:33:52;8.80;60.40
74511;DHT22;62991;50.040;18.400;2023-02-22T01:36:53;8.80;60.80
74511;DHT22;62991;50.040;18.400;2023-02-22T01:39:53;8.50;61.90
74511;DHT22;62991;50.040;18.400;2023-02-22T01:42:58;8.30;63.70
74511;DHT22;62991;50.040;18.400;2023-02-22T01:46:05;8.20;64.60
74511;DHT22;62991;50.040;18.400;2023-02-22T01:49:07;8.30;65.00
74511;DHT22;62991;50.040;18.400;2023-02-22T01:52:17;8.50;65.20
74511;DHT22;62991;50.040;18.400;2023-02-22T01:55:18;8.70;64.50
74511;DHT22;62991;50.040;18.400;2023-02-22T01:58:20;8.90;63.90
74511;DHT22;62991;50.040;18.400;2023-02-22T02:01:23;8.90;63.70
74511;DHT22;62991;50.040;18.400;2023-02-22T02:04:25;8.90;64.20
74511;DHT22;62991;50.040;18.400;2023-02-22T02:07:26;8.80;64.90
74511;DHT22;62991;50.040;18.400;2023-02-22T02:10:29;8.80;64.40
74511;DHT22;62991;50.040;18.400;2023-02-22T02:13:31;8.60;65.20
74511;DHT22;62991;50.040;18.400;2023-02-22T02:16:40;8.60;65.40
74511;DHT22;62991;50.040;18.400;2023-02-22T02:23:09;8.90;64.40
74511;DHT22;62991;50.040;18.400;2023-02-22T02:34:01;9.10;63.50
74511;DHT22;62991;50.040;18.400;2023-02-22T02:40:11;9.20;63.10
74511;DHT22;62991;50.040;18.400;2023-02-22T02:47:00;9.30;63.00
74511;DHT22;62991;50.040;18.400;2023-02-22T02:50:18;9.10;63.60
74511;DHT22;62991;50.040;18.400;2023-02-22T02:53:26;9.10;63.60
74511;DHT22;62991;50.040;18.400;2023-02-22T02:56:30;9.10;63.70
74511;DHT22;62991;50.040;18.400;2023-02-22T02:59:33;9.00;64.10
74511;DHT22;62991;50.040;18.400;2023-02-22T03:02:57;9.00;64.30
74511;DHT22;62991;50.040;18.400;2023-02-22T03:09:58;8.90;64.40
74511;DHT22;62991;50.040;18.400;2023-02-22T03:19:34;8.90;64.20
74511;DHT22;62991;50.040;18.400;2023-02-22T03:22:44;8.80;64.50
74511;DHT22;62991;50.040;18.400;2023-02-22T03:25:51;8.60;65.10
74511;DHT22;62991;50.040;18.400;2023-02-22T03:28:54;8.70;64.80
74511;DHT22;62991;50.040;18.400;2023-02-22T03:31:57;8.70;64.50
74511;DHT22;62991;50.040;18.400;2023-02-22T03:35:07;8.70;64.50
74511;DHT22;62991;50.040;18.400;2023-02-22T03:38:10;8.80;64.30
74511;DHT22;62991;50.040;18.400;2023-02-22T03:41:16;8.80;64.30
74511;DHT22;62991;50.040;18.400;2023-02-22T03:44:24;8.80;64.10
74511;DHT22;62991;50.040;18.400;2023-02-22T03:47:37;8.80;64.00
74511;DHT22;62991;50.040;18.400;2023-02-22T03:50:42;8.80;64.20
74511;DHT22;62991;50.040;18.400;2023-02-22T03:53:42;8.90;63.80
74511;DHT22;62991;50.040;18.400;2023-02-22T03:56:56;8.80;64.10
74511;DHT22;62991;50.040;18.400;2023-02-22T03:59:57;8.70;64.10
74511;DHT22;62991;50.040;18.400;2023-02-22T04:02:59;8.50;64.70
74511;DHT22;62991;50.040;18.400;2023-02-22T04:06:00;8.50;64.60
74511;DHT22;62991;50.040;18.400;2023-02-22T04:09:01;8.50;64.70
74511;DHT22;62991;50.040;18.400;2023-02-22T04:12:02;8.40;64.80
74511;DHT22;62991;50.040;18.400;2023-02-22T04:15:05;8.40;64.90
74511;DHT22;62991;50.040;18.400;2023-02-22T04:18:08;8.20;65.20
74511;DHT22;62991;50.040;18.400;2023-02-22T04:21:08;8.30;65.20
74511;DHT22;62991;50.040;18.400;2023-02-22T04:24:09;8.30;64.80
74511;DHT22;62991;50.040;18.400;2023-02-22T04:27:11;8.20;64.90
74511;DHT22;62991;50.040;18.400;2023-02-22T04:30:12;8.10;65.20
74511;DHT22;62991;50.040;18.400;2023-02-22T04:33:13;8.00;65.40
74511;DHT22;62991;50.040;18.400;2023-02-22T04:36:15;8.10;65.10
74511;DHT22;62991;50.040;18.400;2023-02-22T04:39:16;8.10;64.90
74511;DHT22;62991;50.040;18.400;2023-02-22T04:42:16;8.10;64.80
74511;DHT22;62991;50.040;18.400;2023-02-22T04:45:17;7.90;65.20
74511;DHT22;62991;50.040;18.400;2023-02-22T04:48:18;7.90;65.20
74511;DHT22;62991;50.040;18.400;2023-02-22T04:51:19;7.90;65.10
74511;DHT22;62991;50.040;18.400;2023-02-22T04:54:19;7.70;65.50
74511;DHT22;62991;50.040;18.400;2023-02-22T04:57:21;7.70;65.70
74511;DHT22;62991;50.040;18.400;2023-02-22T05:00:22;7.70;65.80
74511;DHT22;62991;50.040;18.400;2023-02-22T05:03:23;7.60;66.00
74511;DHT22;62991;50.040;18.400;2023-02-22T05:06:23;7.60;65.80
74511;DHT22;62991;50.040;18.400;2023-02-22T05:09:24;7.60;65.90
74511;DHT22;62991;50.040;18.400;2023-02-22T05:12:26;7.60;65.60
74511;DHT22;62991;50.040;18.400;2023-02-22T05:15:27;7.70;65.50
74511;DHT22;62991;50.040;18.400;2023-02-22T05:18:27;7.60;65.70
74511;DHT22;62991;50.040;18.400;2023-02-22T05:21:29;7.60;65.90
74511;DHT22;62991;50.040;18.400;2023-02-22T05:24:30;7.60;65.60
74511;DHT22;62991;50.040;18.400;2023-02-22T05:27:30;7.70;65.40
74511;DHT22;62991;50.040;18.400;2023-02-22T05:30:33;7.60;65.70
74511;DHT22;62991;50.040;18.400;2023-02-22T05:33:34;7.50;65.80
74511;DHT22;62991;50.040;18.400;2023-02-22T05:36:35;7.60;65.80
74511;DHT22;62991;50.040;18.400;2023-02-22T05:39:35;7.60;65.50
74511;DHT22;62991;50.040;18.400;2023-02-22T05:42:36;7.60;65.50
74511;DHT22;62991;50.040;18.400;2023-02-22T05:45:37;7.60;65.40
74511;DHT22;62991;50.040;18.400;2023-02-22T05:48:38;7.40;66.00
74511;DHT22;62991;50.040;18.400;2023-02-22T05:51:38;7.30;66.40
74511;DHT22;62991;50.040;18.400;2023-02-22T05:54:39;7.30;66.10
74511;DHT22;62991;50.040;18.400;2023-02-22T05:57:39;7.30;66.10
74511;DHT22;62991;50.040;18.400;2023-02-22T06:00:40;7.30;65.90
74511;DHT22;62991;50.040;18.400;2023-02-22T06:03:41;7.40;65.80
74511;DHT22;62991;50.040;18.400;2023-02-22T06:06:42;7.40;65.60
74511;DHT22;62991;50.040;18.400;2023-02-22T06:09:42;7.30;66.00
74511;DHT22;62991;50.040;18.400;2023-02-22T06:12:43;7.40;65.60
74511;DHT22;62991;50.040;18.400;2023-02-22T06:15:44;7.50;65.20
74511;DHT22;62991;50.040;18.400;2023-02-22T06:18:44;7.70;64.80
74511;DHT22;62991;50.040;18.400;2023-02-22T06:21:53;7.80;64.40
74511;DHT22;62991;50.040;18.400;2023-02-22T06:24:53;7.70;64.80
74511;DHT22;62991;50.040;18.400;2023-02-22T06:27:54;7.80;64.50
74511;DHT22;62991;50.040;18.400;2023-02-22T06:30:55;7.80;64.60
74511;DHT22;62991;50.040;18.400;2023-02-22T06:33:55;7.90;64.60
74511;DHT22;62991;50.040;18.400;2023-02-22T06:36:56;7.90;64.30
74511;DHT22;62991;50.040;18.400;2023-02-22T06:39:57;8.00;63.90
74511;DHT22;62991;50.040;18.400;2023-02-22T06:42:58;8.10;63.80
74511;DHT22;62991;50.040;18.400;2023-02-22T06:45:59;8.10;63.60
74511;DHT22;62991;50.040;18.400;2023-02-22T06:49:00;7.80;64.20
74511;DHT22;62991;50.040;18.400;2023-02-22T06:52:02;7.70;64.80
74511;DHT22;62991;50.040;18.400;2023-02-22T06:55:04;7.70;64.50
74511;DHT22;62991;50.040;18.400;2023-02-22T06:58:04;7.90;64.60
74511;DHT22;62991;50.040;18.400;2023-02-22T07:01:05;8.00;64.30
74511;DHT22;62991;50.040;18.400;2023-02-22T07:04:07;8.00;64.40
74511;DHT22;62991;50.040;18.400;2023-02-22T07:07:08;8.10;63.90
74511;DHT22;62991;50.040;18.400;2023-02-22T07:10:20;8.20;64.00
74511;DHT22;62991;50.040;18.400;2023-02-22T07:13:21;8.00;64.60
74511;DHT22;62991;50.040;18.400;2023-02-22T07:16:22;8.00;64.50
74511;DHT22;62991;50.040;18.400;2023-02-22T07:19:23;8.30;63.90
74511;DHT22;62991;50.040;18.400;2023-02-22T07:22:24;8.30;63.80
74511;DHT22;62991;50.040;18.400;2023-02-22T07:25:25;8.50;63.10
74511;DHT22;62991;50.040;18.400;2023-02-22T07:28:25;8.60;62.90
74511;DHT22;62991;50.040;18.400;2023-02-22T07:31:26;8.80;62.70
74511;DHT22;62991;50.040;18.400;2023-02-22T07:34:27;8.90;62.40
74511;DHT22;62991;50.040;18.400;2023-02-22T07:37:27;9.00;62.10
74511;DHT22;62991;50.040;18.400;2023-02-22T07:40:29;9.10;62.10
74511;DHT22;62991;50.040;18.400;2023-02-22T07:43:30;9.20;61.90
74511;DHT22;62991;50.040;18.400;2023-02-22T07:46:31;9.20;61.60
74511;DHT22;62991;50.040;18.400;2023-02-22T07:49:31;9.30;61.80
74511;DHT22;62991;50.040;18.400;2023-02-22T07:52:32;9.30;61.70
74511;DHT22;62991;50.040;18.400;2023-02-22T07:55:33;9.20;62.30
74511;DHT22;62991;50.040;18.400;2023-02-22T07:58:34;9.10;62.90
74511;DHT22;62991;50.040;18.400;2023-02-22T08:01:35;9.30;62.80
74511;DHT22;62991;50.040;18.400;2023-02-22T08:04:35;9.10;63.20
74511;DHT22;62991;50.040;18.400;2023-02-22T08:07:36;9.10;63.30
74511;DHT22;62991;50.040;18.400;2023-02-22T08:10:37;9.30;62.80
74511;DHT22;62991;50.040;18.400;2023-02-22T08:13:38;9.50;62.20
74511;DHT22;62991;50.040;18.400;2023-02-22T08:16:39;9.40;62.10
74511;DHT22;62991;50.040;18.400;2023-02-22T08:19:39;9.30;62.60
74511;DHT22;62991;50.040;18.400;2023-02-22T08:22:43;9.60;62.30
74511;DHT22;62991;50.040;18.400;2023-02-22T08:25:44;9.50;62.20
74511;DHT22;62991;50.040;18.400;2023-02-22T08:28:45;9.60;61.90
74511;DHT22;62991;50.040;18.400;2023-02-22T08:31:49;9.70;62.00
74511;DHT22;62991;50.040;18.400;2023-02-22T08:34:51;9.80;61.60
74511;DHT22;62991;50.040;18.400;2023-02-22T08:37:55;9.90;61.60
74511;DHT22;62991;50.040;18.400;2023-02-22T08:40:56;9.90;61.20
74511;DHT22;62991;50.040;18.400;2023-02-22T08:43:57;10.10;60.70
74511;DHT22;62991;50.040;18.400;2023-02-22T08:47:00;9.90;60.80
74511;DHT22;62991;50.040;18.400;2023-02-22T08:50:01;9.90;60.20
74511;DHT22;62991;50.040;18.400;2023-02-22T08:53:04;10.10;60.10
74511;DHT22;62991;50.040;18.400;2023-02-22T08:56:05;10.10;59.40
74511;DHT22;62991;50.040;18.400;2023-02-22T08:59:05;10.20;59.60
74511;DHT22;62991;50.040;18.400;2023-02-22T09:02:17;10.30;59.50
74511;DHT22;62991;50.040;18.400;2023-02-22T09:05:18;10.30;59.40
74511;DHT22;62991;50.040;18.400;2023-02-22T09:08:19;10.30;58.90
74511;DHT22;62991;50.040;18.400;2023-02-22T09:11:20;10.40;59.10
74511;DHT22;62991;50.040;18.400;2023-02-22T09:14:21;10.40;58.90
74511;DHT22;62991;50.040;18.400;2023-02-22T09:17:21;10.50;59.00
74511;DHT22;62991;50.040;18.400;2023-02-22T09:20:23;10.70;58.30
74511;DHT22;62991;50.040;18.400;2023-02-22T09:23:24;10.60;58.10
74511;DHT22;62991;50.040;18.400;2023-02-22T09:26:26;10.80;57.30
74511;DHT22;62991;50.040;18.400;2023-02-22T09:29:27;10.70;58.00
74511;DHT22;62991;50.040;18.400;2023-02-22T09:32:28;10.80;57.80
74511;DHT22;62991;50.040;18.400;2023-02-22T09:35:29;10.90;57.90
74511;DHT22;62991;50.040;18.400;2023-02-22T09:38:29;10.90;58.20
74511;DHT22;62991;50.040;18.400;2023-02-22T09:41:56;11.10;57.90
74511;DHT22;62991;50.040;18.400;2023-02-22T09:45:15;10.90;56.50
74511;DHT22;62991;50.040;18.400;2023-02-22T09:48:18;10.90;57.00
74511;DHT22;62991;50.040;18.400;2023-02-22T09:51:20;10.80;57.20
74511;DHT22;62991;50.040;18.400;2023-02-22T09:54:38;11.00;56.50
74511;DHT22;62991;50.040;18.400;2023-02-22T09:57:42;11.10;55.50
74511;DHT22;62991;50.040;18.400;2023-02-22T10:00:45;10.80;55.80
74511;DHT22;62991;50.040;18.400;2023-02-22T10:07:15;10.60;57.00
74511;DHT22;62991;50.040;18.400;2023-02-22T10:10:19;10.80;57.00
74511;DHT22;62991;50.040;18.400;2023-02-22T10:13:43;10.90;57.30
74511;DHT22;62991;50.040;18.400;2023-02-22T10:23:32;11.00;56.80
74511;DHT22;62991;50.040;18.400;2023-02-22T10:26:40;11.10;56.20
74511;DHT22;62991;50.040;18.400;2023-02-22T10:29:51;11.00;56.00
74511;DHT22;62991;50.040;18.400;2023-02-22T10:33:20;10.90;56.20
74511;DHT22;62991;50.040;18.400;2023-02-22T10:36:22;11.00;55.60
74511;DHT22;62991;50.040;18.400;2023-02-22T10:39:29;10.50;56.20
74511;DHT22;62991;50.040;18.400;2023-02-22T10:42:30;10.60;56.00
74511;DHT22;62991;50.040;18.400;2023-02-22T10:45:33;10.90;55.70
74511;DHT22;62991;50.040;18.400;2023-02-22T10:48:36;11.10;55.20
74511;DHT22;62991;50.040;18.400;2023-02-22T10:51:37;11.40;54.80
74511;DHT22;62991;50.040;18.400;2023-02-22T10:54:44;11.30;53.60
74511;DHT22;62991;50.040;18.400;2023-02-22T10:57:48;11.40;53.70
74511;DHT22;62991;50.040;18.400;2023-02-22T11:00:50;11.50;52.70
74511;DHT22;62991;50.040;18.400;2023-02-22T11:07:50;11.50;52.80
74511;DHT22;62991;50.040;18.400;2023-02-22T11:10:32;11.90;52.60
74511;DHT22;62991;50.040;18.400;2023-02-22T11:13:38;12.30;51.30
74511;DHT22;62991;50.040;18.400;2023-02-22T11:16:46;12.00;50.80
74511;DHT22;62991;50.040;18.400;2023-02-22T11:19:49;12.10;51.30
74511;DHT22;62991;50.040;18.400;2023-02-22T11:22:52;12.30;50.30
74511;DHT22;62991;50.040;18.400;2023-02-22T11:26:17;12.20;50.40
74511;DHT22;62991;50.040;18.400;2023-02-22T11:29:21;12.70;49.00
74511;DHT22;62991;50.040;18.400;2023-02-22T11:32:25;12.70;49.00
74511;DHT22;62991;50.040;18.400;2023-02-22T11:35:30;12.60;48.00
74511;DHT22;62991;50.040;18.400;2023-02-22T11:38:32;12.30;48.60
74511;DHT22;62991;50.040;18.400;2023-02-22T11:41:33;11.90;49.90
74511;DHT22;62991;50.040;18.400;2023-02-22T11:44:34;11.90;49.30
74511;DHT22;62991;50.040;18.400;2023-02-22T11:47:54;12.40;49.20
74511;DHT22;62991;50.040;18.400;2023-02-22T12:01:29;12.70;47.20
74511;DHT22;62991;50.040;18.400;2023-02-22T12:17:30;11.50;49.50
74511;DHT22;62991;50.040;18.400;2023-02-22T12:20:49;11.30;50.00
74511;DHT22;62991;50.040;18.400;2023-02-22T12:30:23;11.80;50.60
74511;DHT22;62991;50.040;18.400;2023-02-22T12:33:28;11.50;50.10
74511;DHT22;62991;50.040;18.400;2023-02-22T12:36:40;11.60;50.30
74511;DHT22;62991;50.040;18.400;2023-02-22T12:40:08;11.60;50.70
74511;DHT22;62991;50.040;18.400;2023-02-22T12:43:28;11.70;50.40
74511;DHT22;62991;50.040;18.400;2023-02-22T12:46:35;11.90;50.80
74511;DHT22;62991;50.040;18.400;2023-02-22T12:50:12;12.00;50.10
74511;DHT22;62991;50.040;18.400;2023-02-22T12:53:33;12.00;50.20
74511;DHT22;62991;50.040;18.400;2023-02-22T12:56:52;12.00;50.30
74511;DHT22;62991;50.040;18.400;2023-02-22T13:00:06;12.00;49.30
74511;DHT22;62991;50.040;18.400;2023-02-22T13:03:38;11.90;49.20
74511;DHT22;62991;50.040;18.400;2023-02-22T13:07:03;11.80;50.10
74511;DHT22;62991;50.040;18.400;2023-02-22T13:23:36;11.60;50.50
74511;DHT22;62991;50.040;18.400;2023-02-22T13:29:48;12.10;49.90
74511;DHT22;62991;50.040;18.400;2023-02-22T13:36:35;12.20;49.10
74511;DHT22;62991;50.040;18.400;2023-02-22T13:46:13;13.70;46.60
74511;DHT22;62991;50.040;18.400;2023-02-22T13:49:46;13.80;45.80
74511;DHT22;62991;50.040;18.400;2023-02-22T13:52:50;13.70;46.80
74511;DHT22;62991;50.040;18.400;2023-02-22T13:55:56;13.50;46.60
74511;DHT22;62991;50.040;18.400;2023-02-22T13:58:59;13.60;46.50
74511;DHT22;62991;50.040;18.400;2023-02-22T14:02:03;13.60;46.80
74511;DHT22;62991;50.040;18.400;2023-02-22T14:15:07;13.90;45.70
74511;DHT22;62991;50.040;18.400;2023-02-22T14:18:16;14.00;45.70
74511;DHT22;62991;50.040;18.400;2023-02-22T14:21:19;14.00;45.20
74511;DHT22;62991;50.040;18.400;2023-02-22T14:24:20;13.60;45.80
74511;DHT22;62991;50.040;18.400;2023-02-22T14:27:20;13.50;46.50
74511;DHT22;62991;50.040;18.400;2023-02-22T14:30:27;13.20;46.70
74511;DHT22;62991;50.040;18.400;2023-02-22T14:37:05;12.80;47.90
74511;DHT22;62991;50.040;18.400;2023-02-22T14:40:35;12.60;48.20
74511;DHT22;62991;50.040;18.400;2023-02-22T14:43:37;12.30;48.80
74511;DHT22;62991;50.040;18.400;2023-02-22T14:46:41;12.10;49.50
74511;DHT22;62991;50.040;18.400;2023-02-22T14:49:48;12.10;49.50
74511;DHT22;62991;50.040;18.400;2023-02-22T14:53:26;12.30;49.30
74511;DHT22;62991;50.040;18.400;2023-02-22T14:56:41;12.20;48.80
74511;DHT22;62991;50.040;18.400;2023-02-22T15:03:28;12.10;50.70
74511;DHT22;62991;50.040;18.400;2023-02-22T15:06:36;12.10;49.00
74511;DHT22;62991;50.040;18.400;2023-02-22T15:09:37;12.20;48.80
74511;DHT22;62991;50.040;18.400;2023-02-22T15:12:37;12.30;48.70
74511;DHT22;62991;50.040;18.400;2023-02-22T15:15:44;12.10;48.90
74511;DHT22;62991;50.040;18.400;2023-02-22T15:18:47;12.10;49.00
74511;DHT22;62991;50.040;18.400;2023-02-22T15:21:51;11.80;49.70
74511;DHT22;62991;50.040;18.400;2023-02-22T15:25:00;11.70;49.90
74511;DHT22;62991;50.040;18.400;2023-02-22T15:28:03;11.60;50.00
74511;DHT22;62991;50.040;18.400;2023-02-22T15:34:31;12.20;49.10
74511;DHT22;62991;50.040;18.400;2023-02-22T15:37:33;12.40;48.40
74511;DHT22;62991;50.040;18.400;2023-02-22T15:40:34;12.40;48.50
74511;DHT22;62991;50.040;18.400;2023-02-22T15:43:35;12.30;49.70
74511;DHT22;62991;50.040;18.400;2023-02-22T15:46:37;12.30;49.20
74511;DHT22;62991;50.040;18.400;2023-02-22T15:49:38;12.30;49.50
74511;DHT22;62991;50.040;18.400;2023-02-22T15:52:38;12.20;49.70
74511;DHT22;62991;50.040;18.400;2023-02-22T15:55:42;12.10;49.80
74511;DHT22;62991;50.040;18.400;2023-02-22T15:58:45;11.90;50.00
74511;DHT22;62991;50.040;18.400;2023-02-22T16:01:49;11.80;50.30
74511;DHT22;62991;50.040;18.400;2023-02-22T16:05:01;11.80;50.40
74511;DHT22;62991;50.040;18.400;2023-02-22T16:08:02;11.60;50.60
74511;DHT22;62991;50.040;18.400;2023-02-22T16:11:07;11.50;51.00
74511;DHT22;62991;50.040;18.400;2023-02-22T16:17:37;11.30;51.10
74511;DHT22;62991;50.040;18.400;2023-02-22T16:20:40;11.20;51.10
74511;DHT22;62991;50.040;18.400;2023-02-22T16:23:52;11.00;51.50
74511;DHT22;62991;50.040;18.400;2023-02-22T16:27:13;10.90;51.60
74511;DHT22;62991;50.040;18.400;2023-02-22T16:33:21;10.90;51.70
74511;DHT22;62991;50.040;18.400;2023-02-22T16:36:24;10.90;51.50
74511;DHT22;62991;50.040;18.400;2023-02-22T16:39:35;10.90;51.50
74511;DHT22;62991;50.040;18.400;2023-02-22T16:42:36;10.90;51.50
74511;DHT22;62991;50.040;18.400;2023-02-22T16:45:37;10.80;51.60
74511;DHT22;62991;50.040;18.400;2023-02-22T16:48:41;10.80;51.50
74511;DHT22;62991;50.040;18.400;2023-02-22T16:54:46;10.70;51.70
74511;DHT22;62991;50.040;18.400;2023-02-22T16:57:48;10.70;51.90
74511;DHT22;62991;50.040;18.400;2023-02-22T17:00:49;10.70;52.00
74511;DHT22;62991;50.040;18.400;2023-02-22T17:03:50;10.60;52.10
74511;DHT22;62991;50.040;18.400;2023-02-22T17:06:53;10.60;52.30
74511;DHT22;62991;50.040;18.400;2023-02-22T17:09:54;10.50;52.10
74511;DHT22;62991;50.040;18.400;2023-02-22T17:12:59;10.50;52.20
74511;DHT22;62991;50.040;18.400;2023-02-22T17:16:00;10.50;52.30
74511;DHT22;62991;50.040;18.400;2023-02-22T17:19:01;10.40;52.20
74511;DHT22;62991;50.040;18.400;2023-02-22T17:22:04;10.50;52.20
74511;DHT22;62991;50.040;18.400;2023-02-22T17:25:38;10.40;52.10
74511;DHT22;62991;50.040;18.400;2023-02-22T17:28:37;10.50;52.30
74511;DHT22;62991;50.040;18.400;2023-02-22T17:31:38;10.40;52.20
74511;DHT22;62991;50.040;18.400;2023-02-22T17:34:39;10.40;52.20
74511;DHT22;62991;50.040;18.400;2023-02-22T17:37:40;10.30;52.10
74511;DHT22;62991;50.040;18.400;2023-02-22T17:40:40;10.30;52.50
74511;DHT22;62991;50.040;18.400;2023-02-22T17:43:41;10.30;52.40
74511;DHT22;62991;50.040;18.400;2023-02-22T17:46:42;10.30;52.40
74511;DHT22;62991;50.040;18.400;2023-02-22T17:49:42;10.30;52.20
74511;DHT22;62991;50.040;18.400;2023-02-22T17:52:44;10.30;52.40
74511;DHT22;62991;50.040;18.400;2023-02-22T17:55:45;10.20;52.50
74511;DHT22;62991;50.040;18.400;2023-02-22T17:58:47;10.20;52.40
74511;DHT22;62991;50.040;18.400;2023-02-22T18:01:49;10.10;52.40
74511;DHT22;62991;50.040;18.400;2023-02-22T18:04:52;10.20;53.10
74511;DHT22;62991;50.040;18.400;2023-02-22T18:07:52;10.20;52.80
74511;DHT22;62991;50.040;18.400;2023-02-22T18:10:54;10.10;52.70
74511;DHT22;62991;50.040;18.400;2023-02-22T18:13:56;10.10;52.60
74511;DHT22;62991;50.040;18.400;2023-02-22T18:16:57;10.10;52.60
74511;DHT22;62991;50.040;18.400;2023-02-22T18:19:58;10.10;52.50
74511;DHT22;62991;50.040;18.400;2023-02-22T18:22:59;10.10;52.50
74511;DHT22;62991;50.040;18.400;2023-02-22T18:26:00;10.10;52.20
74511;DHT22;62991;50.040;18.400;2023-02-22T18:29:01;10.10;52.20
74511;DHT22;62991;50.040;18.400;2023-02-22T18:32:02;10.00;52.40
74511;DHT22;62991;50.040;18.400;2023-02-22T18:35:03;10.00;52.40
74511;DHT22;62991;50.040;18.400;2023-02-22T18:38:05;10.00;52.40
74511;DHT22;62991;50.040;18.400;2023-02-22T18:41:06;10.00;52.70
74511;DHT22;62991;50.040;18.400;2023-02-22T18:44:06;10.00;52.50
74511;DHT22;62991;50.040;18.400;2023-02-22T18:47:10;10.10;52.20
74511;DHT22;62991;50.040;18.400;2023-02-22T18:50:11;10.10;52.50
74511;DHT22;62991;50.040;18.400;2023-02-22T18:53:12;10.10;52.50
74511;DHT22;62991;50.040;18.400;2023-02-22T18:56:15;10.00;52.60
74511;DHT22;62991;50.040;18.400;2023-02-22T18:59:16;10.00;52.50
74511;DHT22;62991;50.040;18.400;2023-02-22T19:02:17;9.90;52.90
74511;DHT22;62991;50.040;18.400;2023-02-22T19:05:20;9.80;52.70
74511;DHT22;62991;50.040;18.400;2023-02-22T19:08:21;9.80;52.40
74511;DHT22;62991;50.040;18.400;2023-02-22T19:11:23;9.80;52.20
74511;DHT22;62991;50.040;18.400;2023-02-22T19:14:23;9.80;52.60
74511;DHT22;62991;50.040;18.400;2023-02-22T19:17:25;9.70;52.90
74511;DHT22;62991;50.040;18.400;2023-02-22T19:20:27;9.70;52.80
74511;DHT22;62991;50.040;18.400;2023-02-22T19:23:32;9.70;52.60
74511;DHT22;62991;50.040;18.400;2023-02-22T19:26:33;9.70;52.60
74511;DHT22;62991;50.040;18.400;2023-02-22T19:29:33;9.70;52.30
74511;DHT22;62991;50.040;18.400;2023-02-22T19:32:37;9.70;52.20
74511;DHT22;62991;50.040;18.400;2023-02-22T19:35:44;9.50;52.30
74511;DHT22;62991;50.040;18.400;2023-02-22T19:38:47;9.60;52.10
74511;DHT22;62991;50.040;18.400;2023-02-22T19:41:48;9.50;52.00
74511;DHT22;62991;50.040;18.400;2023-02-22T19:44:50;9.60;52.20
74511;DHT22;62991;50.040;18.400;2023-02-22T19:47:55;9.60;52.10
74511;DHT22;62991;50.040;18.400;2023-02-22T19:51:10;9.60;52.30
74511;DHT22;62991;50.040;18.400;2023-02-22T19:54:13;9.40;52.40
74511;DHT22;62991;50.040;18.400;2023-02-22T19:57:16;9.50;52.30
74511;DHT22;62991;50.040;18.400;2023-02-22T20:00:17;9.50;52.10
74511;DHT22;62991;50.040;18.400;2023-02-22T20:03:24;9.50;52.10
74511;DHT22;62991;50.040;18.400;2023-02-22T20:06:35;9.50;52.10
74511;DHT22;62991;50.040;18.400;2023-02-22T20:09:39;9.50;51.90
74511;DHT22;62991;50.040;18.400;2023-02-22T20:12:40;9.40;52.00
74511;DHT22;62991;50.040;18.400;2023-02-22T20:15:42;9.50;51.70
74511;DHT22;62991;50.040;18.400;2023-02-22T20:18:45;9.50;51.70
74511;DHT22;62991;50.040;18.400;2023-02-22T20:21:46;9.50;51.70
74511;DHT22;62991;50.040;18.400;2023-02-22T20:24:47;9.40;51.60
74511;DHT22;62991;50.040;18.400;2023-02-22T20:27:49;9.50;51.60
74511;DHT22;62991;50.040;18.400;2023-02-22T20:30:50;9.40;51.60
74511;DHT22;62991;50.040;18.400;2023-02-22T20:33:56;9.40;51.60
74511;DHT22;62991;50.040;18.400;2023-02-22T20:36:57;9.40;51.60
74511;DHT22;62991;50.040;18.400;2023-02-22T20:39:59;9.40;51.60
74511;DHT22;62991;50.040;18.400;2023-02-22T20:42:59;9.30;51.00
74511;DHT22;62991;50.040;18.400;2023-02-22T20:46:01;9.30;51.50
74511;DHT22;62991;50.040;18.400;2023-02-22T20:49:04;9.20;51.60
74511;DHT22;62991;50.040;18.400;2023-02-22T20:52:06;9.20;51.50
74511;DHT22;62991;50.040;18.400;2023-02-22T20:55:07;9.20;51.40
74511;DHT22;62991;50.040;18.400;2023-02-22T20:58:10;9.20;51.30
74511;DHT22;62991;50.040;18.400;2023-02-22T21:01:12;9.00;51.50
74511;DHT22;62991;50.040;18.400;2023-02-22T21:04:14;8.90;51.60
74511;DHT22;62991;50.040;18.400;2023-02-22T21:07:15;8.80;51.90
74511;DHT22;62991;50.040;18.400;2023-02-22T21:10:17;8.60;52.60
74511;DHT22;62991;50.040;18.400;2023-02-22T21:13:20;8.50;52.70
74511;DHT22;62991;50.040;18.400;2023-02-22T21:16:23;8.40;52.80
74511;DHT22;62991;50.040;18.400;2023-02-22T21:19:24;8.50;53.00
74511;DHT22;62991;50.040;18.400;2023-02-22T21:22:25;8.70;52.50
74511;DHT22;62991;50.040;18.400;2023-02-22T21:25:25;8.50;52.20